createdAt,value
2018-06-10T00:01:45.949Z,23.60
2018-06-10T00:04:14.873Z,25.03
2018-06-10T00:06:43.829Z,27.53
2018-06-10T00:09:13.253Z,25.23
2018-06-10T00:11:42.231Z,24.33
2018-06-10T00:14:11.173Z,26.87
2018-06-10T00:16:40.154Z,28.73
2018-06-10T00:19:09.131Z,22.30
2018-06-10T00:21:38.105Z,25.93
2018-06-10T00:24:07.036Z,18.17
2018-06-10T00:26:35.945Z,24.33
2018-06-10T00:29:10.221Z,20.73
2018-06-10T00:31:39.148Z,24.33
2018-06-10T00:34:08.122Z,26.60
2018-06-10T00:36:37.105Z,26.77
2018-06-10T00:39:07.409Z,22.70
2018-06-10T00:41:36.945Z,21.47
2018-06-10T00:44:06.011Z,26.37
2018-06-10T00:46:34.953Z,24.50
2018-06-10T00:49:03.921Z,21.13
2018-06-10T00:51:32.862Z,25.33
2018-06-10T00:54:01.848Z,25.63
2018-06-10T00:56:42.240Z,23.80
2018-06-10T00:59:11.164Z,28.00
2018-06-10T01:01:40.398Z,24.77
2018-06-10T01:04:09.167Z,28.83
2018-06-10T01:06:37.975Z,28.70
2018-06-10T01:09:07.501Z,23.07
2018-06-10T01:11:37.114Z,28.23
2018-06-10T01:14:06.148Z,27.83
2018-06-10T01:16:35.226Z,26.50
2018-06-10T01:19:04.177Z,28.80
2018-06-10T01:21:33.112Z,29.37
2018-06-10T01:24:02.046Z,30.77
2018-06-10T01:26:36.438Z,25.20
2018-06-10T01:29:05.485Z,30.00
2018-06-10T01:31:34.774Z,29.83
2018-06-10T01:34:03.725Z,26.43
2018-06-10T01:36:32.741Z,30.83
2018-06-10T01:39:01.693Z,29.70
2018-06-10T01:41:30.646Z,25.87
2018-06-10T01:43:59.607Z,30.07
2018-06-10T01:46:28.529Z,24.20
2018-06-10T01:48:57.464Z,23.97
2018-06-10T01:51:26.418Z,26.77
2018-06-10T01:53:55.384Z,29.60
2018-06-10T01:56:24.375Z,29.20
2018-06-10T01:58:53.321Z,29.53
2018-06-10T02:01:22.277Z,31.83
2018-06-10T02:03:51.224Z,26.03
2018-06-10T02:06:20.171Z,33.40
2018-06-10T02:08:49.102Z,32.53
2018-06-10T02:11:17.861Z,28.03
2018-06-10T02:13:46.674Z,29.63
2018-06-10T02:16:15.613Z,37.23
2018-06-10T02:18:44.558Z,29.63
2018-06-10T02:21:13.497Z,33.77
2018-06-10T02:23:42.414Z,26.10
2018-06-10T02:26:11.358Z,34.93
2018-06-10T02:28:40.310Z,31.00
2018-06-10T02:31:09.287Z,36.67
2018-06-10T02:33:38.198Z,35.83
2018-06-10T02:36:06.953Z,34.37
2018-06-10T02:38:35.874Z,36.97
2018-06-10T02:41:04.785Z,40.00
2018-06-10T02:43:33.762Z,39.57
2018-06-10T02:46:02.699Z,34.23
2018-06-10T02:48:31.639Z,32.63
2018-06-10T02:51:00.610Z,38.13
2018-06-10T02:53:29.991Z,34.23
2018-06-10T02:55:58.925Z,42.73
2018-06-10T02:58:28.234Z,40.60
2018-06-10T03:00:57.722Z,39.63
2018-06-10T03:03:26.626Z,43.07
2018-06-10T03:05:55.590Z,47.00
2018-06-10T03:08:24.525Z,50.87
2018-06-10T03:10:53.489Z,45.17
2018-06-10T03:13:22.405Z,45.10
2018-06-10T03:15:51.342Z,42.67
2018-06-10T03:18:20.281Z,42.17
2018-06-10T03:20:49.600Z,49.40
2018-06-10T03:23:18.834Z,48.03
2018-06-10T03:25:47.849Z,44.93
2018-06-10T03:28:16.767Z,47.50
2018-06-10T03:30:45.725Z,45.37
2018-06-10T03:33:14.469Z,47.57
2018-06-10T03:35:43.302Z,46.63
2018-06-10T03:38:12.010Z,48.33
2018-06-10T03:40:40.642Z,51.40
2018-06-10T03:43:09.445Z,50.77
2018-06-10T03:45:38.381Z,52.43
2018-06-10T03:48:07.306Z,51.90
2018-06-10T03:50:36.941Z,46.67
2018-06-10T03:53:05.886Z,49.70
2018-06-10T03:55:34.825Z,52.33
2018-06-10T03:58:03.753Z,61.93
2018-06-10T04:00:32.731Z,47.27
2018-06-10T04:03:01.742Z,50.77
2018-06-10T04:05:30.725Z,60.30
2018-06-10T04:07:59.765Z,51.70
2018-06-10T04:10:28.727Z,56.40
2018-06-10T04:12:57.630Z,51.43
2018-06-10T04:15:26.579Z,57.60
2018-06-10T04:17:55.522Z,66.33
2018-06-10T04:20:24.470Z,53.47
2018-06-10T04:22:53.398Z,54.57
2018-06-10T04:25:22.197Z,66.33
2018-06-10T04:27:50.998Z,55.80
2018-06-10T04:30:19.980Z,59.57
2018-06-10T04:32:48.936Z,50.70
2018-06-10T04:35:17.934Z,64.70
2018-06-10T04:37:46.885Z,62.57
2018-06-10T04:40:15.814Z,59.23
2018-06-10T04:42:44.754Z,58.93
2018-06-10T04:45:13.676Z,69.30
2018-06-10T04:47:42.607Z,63.63
2018-06-10T04:50:11.527Z,61.27
2018-06-10T04:52:40.449Z,65.50
2018-06-10T04:55:09.397Z,79.03
2018-06-10T04:57:38.349Z,70.03
2018-06-10T05:00:07.441Z,75.97
2018-06-10T05:02:36.373Z,73.93
2018-06-10T05:05:05.891Z,67.70
2018-06-10T05:07:34.809Z,68.23
2018-06-10T05:10:03.769Z,58.20
2018-06-10T05:12:32.728Z,58.40
2018-06-10T05:15:01.689Z,59.50
2018-06-10T05:17:30.605Z,65.70
2018-06-10T05:19:59.580Z,62.37
2018-06-10T05:22:28.492Z,60.83
2018-06-10T05:24:57.422Z,59.07
2018-06-10T05:27:26.379Z,53.27
2018-06-10T05:29:55.301Z,67.60
2018-06-10T05:32:24.532Z,63.40
2018-06-10T05:34:53.465Z,57.13
2018-06-10T05:37:22.377Z,67.43
2018-06-10T05:39:51.325Z,57.53
2018-06-10T05:42:20.267Z,53.33
2018-06-10T05:44:49.181Z,59.43
2018-06-10T05:47:18.342Z,62.60
2018-06-10T05:49:47.336Z,65.23
2018-06-10T05:52:16.289Z,60.80
2018-06-10T05:54:45.243Z,52.40
2018-06-10T05:57:14.146Z,46.73
2018-06-10T05:59:43.525Z,57.20
2018-06-10T06:02:12.551Z,55.83
2018-06-10T06:04:41.508Z,52.60
2018-06-10T06:07:10.490Z,56.20
2018-06-10T06:09:39.396Z,57.73
2018-06-10T06:12:08.366Z,53.53
2018-06-10T06:14:37.309Z,53.43
2018-06-10T06:17:06.089Z,53.50
2018-06-10T06:19:34.893Z,54.43
2018-06-10T06:22:03.838Z,56.00
2018-06-10T06:24:32.773Z,48.17
2018-06-10T06:27:01.754Z,48.50
2018-06-10T06:29:30.766Z,56.87
2018-06-10T06:31:59.664Z,58.43
2018-06-10T06:34:28.693Z,52.03
2018-06-10T06:36:57.637Z,49.13
2018-06-10T06:39:26.604Z,53.80
2018-06-10T06:41:55.542Z,49.93
2018-06-10T06:44:24.197Z,51.63
2018-06-10T06:46:52.834Z,54.27
2018-06-10T06:49:21.661Z,54.67
2018-06-10T06:51:50.589Z,57.13
2018-06-10T06:54:19.634Z,66.40
2018-06-10T06:56:48.735Z,55.20
2018-06-10T06:59:17.728Z,52.53
2018-06-10T07:01:46.757Z,57.17
2018-06-10T07:04:15.794Z,65.70
2018-06-10T07:06:44.753Z,61.23
2018-06-10T07:09:13.725Z,60.57
2018-06-10T07:11:42.810Z,57.67
2018-06-10T07:14:11.929Z,58.93
2018-06-10T07:16:40.948Z,55.33
2018-06-10T07:19:09.886Z,59.03
2018-06-10T07:21:39.349Z,61.53
2018-06-10T07:24:08.303Z,56.67
2018-06-10T07:26:37.253Z,55.90
2018-06-10T07:29:06.184Z,51.73
2018-06-10T07:31:35.242Z,51.50
2018-06-10T07:34:05.034Z,50.33
2018-06-10T07:36:33.895Z,49.17
2018-06-10T07:39:06.457Z,43.23
2018-06-10T07:41:35.938Z,51.90
2018-06-10T07:44:04.849Z,58.20
2018-06-10T07:46:33.832Z,49.97
2018-06-10T07:49:02.781Z,47.33
2018-06-10T07:51:31.737Z,51.60
2018-06-10T07:54:00.810Z,44.23
2018-06-10T07:56:29.732Z,45.30
2018-06-10T07:58:58.662Z,46.03
2018-06-10T08:01:27.601Z,48.00
2018-06-10T08:03:56.573Z,46.90
2018-06-10T08:06:25.572Z,45.43
2018-06-10T08:08:54.533Z,47.67
2018-06-10T08:11:23.617Z,44.10
2018-06-10T08:13:52.996Z,51.63
2018-06-10T08:16:22.006Z,48.53
2018-06-10T08:18:50.754Z,51.30
2018-06-10T08:21:19.587Z,44.43
2018-06-10T08:23:48.533Z,55.63
2018-06-10T08:26:17.503Z,49.63
2018-06-10T08:28:46.436Z,49.63
2018-06-10T08:31:15.391Z,48.47
2018-06-10T08:33:44.366Z,41.47
2018-06-10T08:36:13.285Z,45.47
2018-06-10T08:38:41.998Z,47.07
2018-06-10T08:41:10.843Z,41.70
2018-06-10T08:43:39.761Z,42.20
2018-06-10T08:46:08.733Z,43.93
2018-06-10T08:48:37.689Z,41.07
2018-06-10T08:51:06.789Z,42.00
2018-06-10T08:53:35.738Z,40.10
2018-06-10T08:56:04.665Z,44.50
2018-06-10T08:58:33.590Z,39.23
2018-06-10T09:01:02.514Z,38.90
2018-06-10T09:03:31.477Z,44.90
2018-06-10T09:06:00.466Z,38.40
2018-06-10T09:08:29.508Z,41.10
2018-06-10T09:10:58.431Z,38.40
2018-06-10T09:13:27.408Z,44.67
2018-06-10T09:15:56.375Z,41.67
2018-06-10T09:18:25.357Z,40.03
2018-06-10T09:20:54.281Z,38.47
2018-06-10T09:23:23.246Z,35.00
2018-06-10T09:25:52.326Z,36.47
2018-06-10T09:28:21.276Z,30.73
2018-06-10T09:30:50.226Z,33.53
2018-06-10T09:33:19.221Z,31.87
2018-06-10T09:35:48.147Z,37.40
2018-06-10T09:38:17.120Z,32.40
2018-06-10T09:40:46.055Z,31.03
2018-06-10T09:43:16.033Z,37.20
2018-06-10T09:45:45.046Z,33.90
2018-06-10T09:48:13.978Z,32.00
2018-06-10T09:50:42.921Z,30.23
2018-06-10T09:53:11.885Z,27.17
2018-06-10T09:55:40.985Z,30.40
2018-06-10T09:58:09.806Z,31.80
2018-06-10T10:00:38.629Z,31.17
2018-06-10T10:03:07.573Z,36.33
2018-06-10T10:05:36.529Z,28.30
2018-06-10T10:08:05.471Z,29.30
2018-06-10T10:10:35.165Z,31.20
2018-06-10T10:13:04.104Z,28.00
2018-06-10T10:15:33.053Z,32.47
2018-06-10T10:18:01.985Z,28.07
2018-06-10T10:20:30.904Z,29.00
2018-06-10T10:22:59.823Z,30.77
2018-06-10T10:25:28.768Z,34.13
2018-06-10T10:27:57.689Z,34.30
2018-06-10T10:30:26.601Z,36.80
2018-06-10T10:32:56.394Z,30.33
2018-06-10T10:35:25.629Z,31.20
2018-06-10T10:37:54.565Z,26.80
2018-06-10T10:40:23.510Z,29.13
2018-06-10T10:42:52.471Z,29.87
2018-06-10T10:45:21.402Z,31.40
2018-06-10T10:47:50.380Z,36.07
2018-06-10T10:50:19.296Z,29.10
2018-06-10T10:52:48.230Z,27.57
2018-06-10T10:55:17.165Z,29.50
2018-06-10T10:57:46.076Z,28.70
2018-06-10T11:00:15.083Z,24.93
2018-06-10T11:02:44.071Z,27.93
2018-06-10T11:05:13.088Z,26.80
2018-06-10T11:07:42.019Z,30.93
2018-06-10T11:10:10.958Z,26.50
2018-06-10T11:12:39.882Z,24.93
2018-06-10T11:15:08.856Z,22.80
2018-06-10T11:17:37.931Z,26.40
2018-06-10T11:20:06.852Z,25.03
2018-06-10T11:22:35.793Z,25.43
2018-06-10T11:25:05.354Z,32.10
2018-06-10T11:27:34.285Z,29.63
2018-06-10T11:30:03.221Z,31.10
2018-06-10T11:32:32.306Z,30.00
2018-06-10T11:35:01.279Z,27.87
2018-06-10T11:37:30.214Z,29.33
2018-06-10T11:39:59.147Z,32.07
2018-06-10T11:42:28.150Z,25.83
2018-06-10T11:44:57.005Z,28.90
2018-06-10T11:47:25.931Z,30.07
2018-06-10T11:49:54.861Z,22.00
2018-06-10T11:52:23.778Z,26.13
2018-06-10T11:54:52.724Z,26.40
2018-06-10T11:57:21.717Z,25.30
2018-06-10T11:59:50.670Z,23.33
2018-06-10T12:19:43.222Z,27.87
2018-06-10T12:22:12.338Z,24.70
2018-06-10T12:24:41.304Z,28.53
2018-06-10T12:27:10.233Z,26.13
2018-06-10T12:29:39.016Z,23.43
2018-06-10T12:32:07.876Z,22.37
2018-06-10T12:34:36.874Z,23.70
2018-06-10T12:37:05.867Z,25.43
2018-06-10T12:39:34.810Z,23.73
2018-06-10T12:42:03.891Z,19.50
2018-06-10T12:44:33.829Z,21.40
2018-06-10T12:47:03.101Z,20.10
2018-06-10T12:49:32.174Z,17.97
2018-06-10T12:52:01.157Z,19.90
2018-06-10T12:54:30.267Z,22.30
2018-06-10T12:56:59.160Z,21.07
2018-06-10T12:59:27.925Z,18.53
2018-06-10T13:01:56.874Z,20.80
2018-06-10T13:04:26.029Z,22.87
2018-06-10T13:06:55.204Z,16.37
2018-06-10T13:09:24.406Z,14.83
2018-06-10T13:11:55.528Z,16.40
2018-06-10T13:14:24.529Z,16.20
2018-06-10T13:16:53.520Z,18.23
2018-06-10T13:19:22.413Z,14.80
2018-06-10T13:21:51.502Z,19.83
2018-06-10T13:24:20.519Z,21.97
2018-06-10T13:26:49.485Z,25.87
2018-06-10T13:29:18.496Z,23.37
2018-06-10T13:31:47.851Z,23.57
2018-06-10T13:34:16.771Z,23.80
2018-06-10T13:36:45.570Z,20.00
2018-06-10T13:39:14.366Z,18.13
2018-06-10T13:41:43.463Z,18.10
2018-06-10T13:44:12.523Z,16.50
2018-06-10T13:46:41.594Z,13.60
2018-06-10T13:49:10.637Z,16.00
2018-06-10T13:51:39.962Z,16.60
2018-06-10T13:54:08.995Z,16.43
2018-06-10T13:56:38.029Z,16.60
2018-06-10T13:59:07.052Z,13.67
2018-06-10T14:01:36.284Z,14.70
2018-06-10T14:04:05.116Z,15.93
2018-06-10T14:06:34.022Z,21.23
2018-06-10T14:09:04.242Z,12.40
2018-06-10T14:11:33.232Z,15.70
2018-06-10T14:14:02.280Z,16.37
2018-06-10T14:16:31.285Z,21.90
2018-06-10T14:19:00.362Z,15.70
2018-06-10T14:21:29.364Z,21.47
2018-06-10T14:23:58.401Z,14.10
2018-06-10T14:26:27.568Z,18.70
2018-06-10T14:28:56.590Z,13.13
2018-06-10T14:31:26.582Z,25.60
2018-06-10T14:33:55.638Z,11.50
2018-06-10T14:36:24.670Z,17.33
2018-06-10T14:38:53.740Z,11.43
2018-06-10T14:41:22.767Z,12.10
2018-06-10T14:43:51.760Z,15.50
2018-06-10T14:46:21.009Z,17.77
2018-06-10T14:48:49.756Z,11.40
2018-06-10T14:51:18.581Z,14.63
2018-06-10T14:53:47.304Z,17.03
2018-06-10T14:56:16.086Z,13.20
2018-06-10T14:58:45.003Z,14.23
2018-06-10T15:01:13.922Z,14.33
2018-06-10T15:03:42.843Z,12.83
2018-06-10T15:06:11.822Z,13.53
2018-06-10T15:08:40.751Z,10.00
2018-06-10T15:11:09.649Z,13.60
2018-06-10T15:13:38.557Z,14.73
2018-06-10T15:16:07.538Z,14.07
2018-06-10T15:18:36.481Z,17.20
2018-06-10T15:21:05.469Z,13.47
2018-06-10T15:23:34.420Z,17.10
2018-06-10T15:26:03.658Z,16.00
2018-06-10T15:28:32.619Z,12.57
2018-06-10T15:31:01.545Z,19.40
2018-06-10T15:33:30.493Z,14.37
2018-06-10T15:35:59.432Z,13.07
2018-06-10T15:38:28.357Z,12.77
2018-06-10T15:40:57.279Z,12.67
2018-06-10T15:43:26.196Z,14.30
2018-06-10T15:45:55.106Z,14.13
2018-06-10T15:48:24.041Z,12.93
2018-06-10T15:50:52.983Z,10.67
2018-06-10T15:53:21.938Z,13.30
2018-06-10T15:55:50.681Z,11.80
2018-06-10T15:58:19.483Z,11.60
2018-06-10T16:00:48.380Z,16.83
2018-06-10T16:03:17.313Z,9.60
2018-06-10T16:05:46.385Z,13.83
2018-06-10T16:08:15.327Z,9.83
2018-06-10T16:10:44.237Z,13.70
2018-06-10T16:13:13.210Z,16.60
2018-06-10T16:15:42.635Z,14.73
2018-06-10T16:18:11.562Z,11.10
2018-06-10T16:20:40.485Z,13.57
2018-06-10T16:23:09.412Z,17.30
2018-06-10T16:25:38.384Z,11.37
2018-06-10T16:28:07.343Z,14.10
2018-06-10T16:30:36.274Z,13.00
2018-06-10T16:33:05.261Z,12.07
2018-06-10T16:35:34.178Z,11.50
2018-06-10T16:38:03.182Z,10.63
2018-06-10T16:40:32.085Z,11.03
2018-06-10T16:43:01.122Z,18.00
2018-06-10T16:45:30.037Z,11.73
2018-06-10T16:47:58.937Z,18.20
2018-06-10T16:50:27.708Z,10.30
2018-06-10T16:52:56.506Z,10.20
2018-06-10T16:55:25.467Z,10.70
2018-06-10T16:57:54.414Z,11.43
2018-06-10T17:00:23.499Z,18.60
2018-06-10T17:02:52.397Z,13.00
2018-06-10T17:05:21.394Z,10.83
2018-06-10T17:07:50.326Z,12.63
2018-06-10T17:10:19.260Z,10.80
2018-06-10T17:12:48.302Z,10.30
2018-06-10T17:15:17.226Z,15.23
2018-06-10T17:17:46.155Z,14.40
2018-06-10T17:20:15.467Z,12.30
2018-06-10T17:22:44.398Z,12.13
2018-06-10T17:25:13.369Z,13.80
2018-06-10T17:27:42.314Z,12.43
2018-06-10T17:30:11.265Z,10.83
2018-06-10T17:32:40.214Z,13.00
2018-06-10T17:35:09.509Z,18.37
2018-06-10T17:37:38.456Z,18.00
2018-06-10T17:40:07.576Z,17.93
2018-06-10T17:42:37.047Z,15.30
2018-06-10T17:45:06.000Z,17.13
2018-06-10T17:47:35.021Z,22.17
2018-06-10T17:50:04.003Z,18.57
2018-06-10T17:52:32.952Z,13.80
2018-06-10T17:55:01.914Z,17.20
2018-06-10T17:57:30.674Z,20.93
2018-06-10T17:59:59.512Z,17.90
2018-06-10T18:02:28.672Z,18.30
2018-06-10T18:04:57.618Z,18.23
2018-06-10T18:07:26.535Z,17.17
2018-06-10T18:09:55.485Z,15.47
2018-06-10T18:12:24.387Z,20.10
2018-06-10T18:14:53.341Z,18.97
2018-06-10T18:17:22.411Z,17.03
2018-06-10T18:19:51.405Z,26.00
2018-06-10T18:22:20.422Z,15.23
2018-06-10T18:24:49.373Z,17.60
2018-06-10T18:27:18.362Z,19.47
2018-06-10T18:29:47.304Z,19.40
2018-06-10T18:32:16.218Z,17.57
2018-06-10T18:34:45.154Z,18.17
2018-06-10T18:37:14.103Z,20.40
2018-06-10T18:39:43.037Z,20.47
2018-06-10T18:42:11.965Z,18.57
2018-06-10T18:44:40.946Z,21.60
2018-06-10T18:47:09.881Z,21.37
2018-06-10T18:49:38.817Z,17.60
2018-06-10T18:52:07.766Z,19.77
2018-06-10T18:54:36.710Z,21.30
2018-06-10T18:57:05.700Z,18.83
2018-06-10T18:59:34.670Z,21.67
2018-06-10T19:02:03.378Z,19.40
2018-06-10T19:04:32.220Z,23.40
2018-06-10T19:07:01.156Z,21.97
2018-06-10T19:09:30.145Z,21.80
2018-06-10T19:11:59.073Z,32.43
2018-06-10T19:14:28.009Z,24.40
2018-06-10T19:16:57.039Z,26.30
2018-06-10T19:19:26.019Z,24.20
2018-06-10T19:21:55.010Z,20.50
2018-06-10T19:24:24.006Z,25.20
2018-06-10T19:26:52.905Z,26.10
2018-06-10T19:29:21.933Z,19.20
2018-06-10T19:31:50.812Z,20.60
2018-06-10T19:34:19.770Z,21.73
2018-06-10T19:36:48.722Z,23.33
2018-06-10T19:39:17.909Z,22.40
2018-06-10T19:41:46.940Z,20.93
2018-06-10T19:44:15.986Z,22.83
2018-06-10T19:46:44.949Z,20.33
2018-06-10T19:49:14.248Z,23.23
2018-06-10T19:51:43.399Z,24.80
2018-06-10T19:54:12.387Z,23.43
2018-06-10T19:56:41.302Z,24.10
2018-06-10T19:59:10.281Z,21.43
2018-06-10T20:01:40.090Z,22.63
2018-06-10T20:04:09.042Z,23.97
2018-06-10T20:06:37.778Z,18.57
2018-06-10T20:09:07.582Z,20.27
2018-06-10T20:11:36.512Z,21.70
2018-06-10T20:14:05.522Z,22.23
2018-06-10T20:16:34.517Z,25.30
2018-06-10T20:19:03.572Z,19.40
2018-06-10T20:21:32.538Z,20.80
2018-06-10T20:24:01.479Z,30.07
2018-06-10T20:26:30.425Z,23.03
2018-06-10T20:28:59.366Z,22.53
2018-06-10T20:31:28.363Z,22.27
2018-06-10T20:33:58.089Z,21.10
2018-06-10T20:36:27.638Z,26.17
2018-06-10T20:38:56.603Z,27.00
2018-06-10T20:41:25.536Z,27.73
2018-06-10T20:43:54.690Z,30.83
2018-06-10T20:46:23.617Z,34.03
2018-06-10T20:48:52.534Z,25.50
2018-06-10T20:51:21.499Z,29.80
2018-06-10T20:53:50.393Z,25.97
2018-06-10T20:56:19.357Z,24.47
2018-06-10T20:58:48.912Z,27.20
2018-06-10T21:01:17.940Z,29.37
2018-06-10T21:03:46.806Z,31.47
2018-06-10T21:06:16.006Z,30.13
2018-06-10T21:08:45.903Z,25.87
2018-06-10T21:11:14.714Z,27.17
2018-06-10T21:13:43.591Z,29.73
2018-06-10T21:16:12.678Z,28.60
2018-06-10T21:18:42.141Z,27.60
2018-06-10T21:21:11.121Z,29.37
2018-06-10T21:23:40.073Z,28.83
2018-06-10T21:26:09.057Z,23.03
2018-06-10T21:28:37.997Z,27.60
2018-06-10T21:31:07.002Z,26.23
2018-06-10T21:33:35.713Z,26.50
2018-06-10T21:36:04.575Z,26.03
2018-06-10T21:38:33.517Z,31.07
2018-06-10T21:41:02.629Z,26.97
2018-06-10T21:43:31.560Z,24.20
2018-06-10T21:46:00.274Z,29.23
2018-06-10T21:48:29.114Z,26.93
2018-06-10T21:50:58.060Z,28.17
2018-06-10T21:53:27.014Z,28.20
2018-06-10T21:55:55.921Z,32.67
2018-06-10T21:58:25.089Z,24.30
2018-06-10T22:00:56.361Z,24.10
2018-06-10T22:03:25.651Z,29.40
2018-06-10T22:05:54.626Z,25.03
2018-06-10T22:08:23.711Z,31.33
2018-06-10T22:10:52.786Z,33.67
2018-06-10T22:13:21.778Z,34.73
2018-06-10T22:15:50.817Z,24.97
2018-06-10T22:18:19.673Z,25.73
2018-06-10T22:20:48.576Z,33.30
2018-06-10T22:23:17.494Z,26.20
2018-06-10T22:25:46.185Z,35.30
2018-06-10T22:28:15.069Z,23.13
2018-06-10T22:30:44.060Z,27.30
2018-06-10T22:33:13.006Z,31.87
2018-06-10T22:35:41.960Z,29.03
2018-06-10T22:38:10.875Z,25.93
2018-06-10T22:40:39.884Z,24.80
2018-06-10T22:43:08.799Z,35.53
2018-06-10T22:45:37.717Z,25.93
2018-06-10T22:48:06.689Z,27.67
2018-06-10T22:50:35.615Z,25.97
2018-06-10T22:53:14.211Z,24.53
2018-06-10T22:55:43.191Z,26.90
2018-06-10T22:58:12.185Z,30.10
2018-06-10T23:00:40.894Z,33.30
2018-06-10T23:03:09.755Z,33.53
2018-06-10T23:05:38.673Z,36.33
2018-06-10T23:08:07.682Z,32.03
2018-06-10T23:10:36.595Z,29.13
2018-06-10T23:13:05.863Z,31.40
2018-06-10T23:15:34.787Z,30.53
2018-06-10T23:18:03.721Z,34.30
2018-06-10T23:20:32.674Z,32.23
2018-06-10T23:23:01.600Z,38.73
2018-06-10T23:25:30.588Z,34.90
2018-06-10T23:27:59.536Z,33.13
2018-06-10T23:30:28.489Z,41.23
2018-06-10T23:32:57.551Z,29.17
2018-06-10T23:35:26.897Z,33.57
2018-06-10T23:37:55.994Z,32.70
2018-06-10T23:40:24.965Z,34.77
2018-06-10T23:42:53.913Z,38.23
2018-06-10T23:45:22.845Z,35.63
2018-06-10T23:47:51.777Z,36.87
2018-06-10T23:50:20.670Z,40.20
2018-06-10T23:52:49.621Z,40.97
2018-06-10T23:55:18.553Z,32.73
2018-06-10T23:57:47.945Z,42.73
